Time;durP1;ratioP1;P1;durP2;ratioP2;P2;SDS_P1;SDS_P2;PMS_P1;PMS_P2;Temp;Humidity;BMP_temperature;BMP_pressure;BME280_temperature;BME280_humidity;BME280_pressure;Samples;Min_cycle;Max_cycle;Signal;HPM_P1;HPM_P2
2023/10/10 00:00:57;;;;;;;8.75;2.38;;;12.20;99.90;;;;;;4996008;28;20464;-78
2023/10/10 00:03:26;;;;;;;4.15;2.20;;;12.20;99.90;;;;;;4996033;28;20117;-77
2023/10/10 00:05:53;;;;;;;3.17;2.22;;;12.30;99.90;;;;;;4996271;28;20426;-77
2023/10/10 00:08:23;;;;;;;2.17;1.70;;;12.40;99.90;;;;;;4996747;28;20027;-79
2023/10/10 00:10:50;;;;;;;9.65;2.72;;;12.30;99.90;;;;;;4996245;28;20018;-77
2023/10/10 00:13:17;;;;;;;6.63;2.47;;;12.40;99.90;;;;;;4995834;28;20463;-76
2023/10/10 00:15:49;;;;;;;7.72;2.22;;;12.40;99.90;;;;;;4995476;28;20050;-79
2023/10/10 00:18:22;;;;;;;6.38;1.85;;;12.40;99.90;;;;;;4995535;28;20093;-76
2023/10/10 00:21:20;;;;;;;6.72;2.42;;;12.30;99.90;;;;;;4978048;28;20022;-77
2023/10/10 00:23:49;;;;;;;6.75;3.30;;;12.30;99.90;;;;;;4995353;28;20089;-76
2023/10/10 00:26:15;;;;;;;;;;;12.20;99.90;;;;;;4996096;28;20379;-77
2023/10/10 00:28:44;;;;;;;2.83;2.25;;;12.20;99.90;;;;;;4978221;28;19960;-76
2023/10/10 00:31:15;;;;;;;5.18;1.25;;;12.20;99.90;;;;;;4996354;28;20084;-77
2023/10/10 00:33:41;;;;;;;3.33;2.28;;;12.30;99.90;;;;;;4995923;28;20046;-76
2023/10/10 00:36:20;;;;;;;10.27;2.92;;;12.40;99.90;;;;;;4979131;28;20026;-77
2023/10/10 00:38:54;;;;;;;;;;;12.40;99.90;;;;;;4997069;28;20018;-76
2023/10/10 00:41:23;;;;;;;6.28;2.72;;;12.30;99.90;;;;;;4997306;28;19929;-78
2023/10/10 00:43:49;;;;;;;12.93;3.38;;;12.30;99.90;;;;;;4997761;28;20471;-77
2023/10/10 00:46:28;;;;;;;3.03;2.05;;;12.30;99.90;;;;;;4998040;28;20030;-78
2023/10/10 00:48:59;;;;;;;6.30;1.23;;;12.40;99.90;;;;;;4997728;28;20062;-79
2023/10/10 00:51:29;;;;;;;5.78;2.95;;;12.40;99.90;;;;;;4979787;28;20037;-78
2023/10/10 00:54:16;;;;;;;4.13;2.05;;;12.30;99.90;;;;;;4997829;28;20018;-78
2023/10/10 00:56:44;;;;;;;2.60;2.00;;;12.30;99.90;;;;;;4998199;28;20030;-77
2023/10/10 00:59:11;;;;;;;4.82;2.28;;;12.40;99.90;;;;;;4997611;28;20481;-78
2023/10/10 01:01:40;;;;;;;3.65;1.73;;;12.30;99.90;;;;;;4978077;28;20088;-79
2023/10/10 01:04:07;;;;;;;;;;;12.20;99.90;;;;;;4978303;28;20368;-77
2023/10/10 01:06:39;;;;;;;10.60;2.15;;;12.00;99.90;;;;;;4977776;28;19905;-78
2023/10/10 01:09:21;;;;;;;8.40;1.98;;;11.70;99.90;;;;;;4995315;28;20019;-78
2023/10/10 01:11:48;;;;;;;2.35;1.80;;;11.70;99.90;;;;;;4977355;28;20031;-77
2023/10/10 01:14:18;;;;;;;3.13;1.67;;;11.60;99.90;;;;;;4993932;28;20188;-77
2023/10/10 01:16:47;;;;;;;5.03;2.85;;;11.60;99.90;;;;;;4994358;28;20030;-77
2023/10/10 01:19:18;;;;;;;11.98;3.00;;;11.60;99.90;;;;;;4996246;28;20023;-77
2023/10/10 01:21:50;;;;;;;3.42;2.47;;;11.50;99.90;;;;;;4996009;28;20030;-78
2023/10/10 01:24:18;;;;;;;13.90;3.45;;;11.40;99.90;;;;;;4996337;28;20061;-78
2023/10/10 01:26:45;;;;;;;9.27;3.08;;;11.40;99.90;;;;;;4978405;28;20498;-78
2023/10/10 01:29:25;;;;;;;3.33;2.78;;;11.40;99.90;;;;;;4979616;28;20026;-79
2023/10/10 01:31:54;;;;;;;5.93;1.95;;;11.40;99.90;;;;;;4981887;28;20379;-78
2023/10/10 01:34:30;;;;;;;2.78;1.95;;;11.30;99.90;;;;;;4997344;28;20411;-78
2023/10/10 01:37:07;;;;;;;5.45;3.08;;;11.30;99.90;;;;;;4997627;28;20434;-76
2023/10/10 01:39:54;;;;;;;4.20;2.83;;;11.20;99.90;;;;;;4998834;28;20049;-77
2023/10/10 01:42:31;;;;;;;8.63;2.88;;;11.30;99.90;;;;;;4999203;28;20026;-78
2023/10/10 01:45:07;;;;;;;2.50;1.75;;;11.30;99.90;;;;;;4982382;28;20045;-77
2023/10/10 01:47:34;;;;;;;6.57;3.05;;;11.40;99.90;;;;;;4999914;28;20050;-78
2023/10/10 01:50:07;;;;;;;5.50;1.35;;;11.30;99.90;;;;;;5000206;28;20062;-77
2023/10/10 01:52:48;;;;;;;3.05;1.95;;;11.30;99.90;;;;;;5000263;28;20026;-77
2023/10/10 01:55:17;;;;;;;6.25;2.83;;;11.30;99.90;;;;;;4979792;28;20022;-76
2023/10/10 01:57:43;;;;;;;7.00;2.47;;;11.20;99.90;;;;;;4997687;28;20435;-77
2023/10/10 02:00:21;;;;;;;7.38;3.70;;;11.20;99.90;;;;;;4979861;28;20475;-78
2023/10/10 02:02:52;;;;;;;5.10;2.10;;;11.20;99.90;;;;;;4997261;28;20026;-76
2023/10/10 02:07:57;;;;;;;12.60;2.95;;;11.20;99.90;;;;;;4997161;28;20382;-76
2023/10/10 02:10:26;;;;;;;2.60;1.40;;;11.00;99.90;;;;;;4979564;28;20027;-78
2023/10/10 02:12:52;;;;;;;3.90;1.85;;;11.00;99.90;;;;;;4996886;28;20023;-76
2023/10/10 02:15:19;;;;;;;8.60;1.92;;;11.00;99.90;;;;;;4982375;28;20023;-79
2023/10/10 02:17:51;;;;;;;9.98;2.13;;;11.10;99.90;;;;;;5000250;28;20022;-78
2023/10/10 02:20:49;;;;;;;4.55;1.65;;;11.00;99.90;;;;;;5000611;28;20019;-79
2023/10/10 02:28:20;;;;;;;5.03;2.28;;;11.00;99.90;;;;;;5000728;28;20481;-79
2023/10/10 02:30:52;;;;;;;8.05;2.97;;;11.10;99.90;;;;;;5000531;28;20030;-78
2023/10/10 02:35:59;;;;;;;2.28;1.30;;;10.90;99.90;;;;;;5000922;28;20033;-78
2023/10/10 02:38:33;;;;;;;6.88;2.10;;;10.80;99.90;;;;;;4998416;28;20585;-77
2023/10/10 02:46:36;;;;;;;5.75;2.38;;;10.50;99.90;;;;;;4997467;28;20069;-78
2023/10/10 02:49:09;;;;;;;3.72;2.08;;;10.50;99.90;;;;;;4996893;28;20026;-77
2023/10/10 02:51:36;;;;;;;5.00;1.85;;;10.50;99.90;;;;;;4979573;28;20030;-78
2023/10/10 02:54:10;;;;;;;5.60;2.45;;;10.50;99.90;;;;;;4979278;28;20030;-78
2023/10/10 02:56:43;;;;;;;9.93;2.28;;;10.50;99.90;;;;;;4979393;28;20018;-77
2023/10/10 02:59:09;;;;;;;8.65;3.17;;;10.40;99.90;;;;;;4979564;28;20486;-78
2023/10/10 03:01:56;;;;;;;2.80;2.55;;;10.40;99.90;;;;;;4980082;28;20022;-78
2023/10/10 03:04:23;;;;;;;6.38;1.77;;;10.30;99.90;;;;;;4979975;28;20120;-78
2023/10/10 03:06:48;;;;;;;4.05;2.22;;;10.30;99.90;;;;;;4979940;28;20033;-77
2023/10/10 03:12:16;;;;;;;2.95;1.85;;;10.30;99.90;;;;;;4969771;28;20026;-78
2023/10/10 03:14:43;;;;;;;2.08;1.88;;;10.20;99.90;;;;;;4980056;28;20069;-78
2023/10/10 03:17:31;;;;;;;3.42;1.95;;;10.20;99.90;;;;;;4980229;28;20395;-78
2023/10/10 03:20:10;;;;;;;25.60;2.95;;;10.20;99.90;;;;;;4997294;28;20080;-78
2023/10/10 03:23:07;;;;;;;7.88;2.25;;;10.10;99.90;;;;;;4997207;28;20041;-77
2023/10/10 03:25:24;;;;;;;6.18;2.75;;;10.10;99.90;;;;;;4997232;28;20026;-76
2023/10/10 03:28:05;;;;;;;4.43;2.03;;;10.10;99.90;;;;;;4997103;28;20524;-78
2023/10/10 03:33:29;;;;;;;4.85;2.92;;;10.20;99.90;;;;;;4996659;28;20048;-77
2023/10/10 03:36:23;;;;;;;5.82;2.67;;;10.20;99.90;;;;;;4997071;28;20026;-78
2023/10/10 05:25:22;;;;;;;3.10;1.48;;;9.10;99.90;;;;;;4999630;28;20049;-78
2023/10/10 05:27:51;;;;;;;2.40;1.77;;;9.10;99.90;;;;;;4998529;28;20030;-78
2023/10/10 05:30:23;;;;;;;6.60;1.77;;;9.00;99.90;;;;;;4981710;28;20030;-78
2023/10/10 05:33:04;;;;;;;4.05;2.25;;;9.00;99.90;;;;;;4981194;28;20022;-78
2023/10/10 05:35:57;;;;;;;8.35;2.17;;;9.00;99.90;;;;;;4999280;28;20022;-79
2023/10/10 05:38:23;;;;;;;1.60;1.45;;;9.10;99.90;;;;;;4999366;28;20030;-78
2023/10/10 05:40:49;;;;;;;4.13;3.03;;;9.10;99.90;;;;;;5000349;28;20540;-79
2023/10/10 05:43:17;;;;;;;1.88;1.77;;;9.20;99.90;;;;;;5001852;28;20498;-78
2023/10/10 05:45:43;;;;;;;4.75;2.70;;;9.40;99.90;;;;;;4984804;28;20034;-78
2023/10/10 05:48:10;;;;;;;1.00;0.95;;;9.50;99.90;;;;;;4999899;28;20053;-77
2023/10/10 05:50:37;;;;;;;8.40;2.45;;;9.50;99.90;;;;;;4979742;28;20030;-76
2023/10/10 05:53:05;;;;;;;1.73;1.60;;;9.40;99.90;;;;;;4997123;28;20022;-77
2023/10/10 05:55:35;;;;;;;2.75;2.05;;;9.40;99.90;;;;;;4997292;28;20353;-77
2023/10/10 05:58:04;;;;;;;5.28;1.83;;;9.50;99.90;;;;;;4997238;28;20030;-77
2023/10/10 06:00:39;;;;;;;17.33;2.63;;;9.70;99.90;;;;;;4997271;28;20027;-78
2023/10/10 06:03:05;;;;;;;6.28;2.47;;;9.60;99.90;;;;;;4997559;28;20095;-78
2023/10/10 06:05:33;;;;;;;2.40;2.00;;;9.70;99.90;;;;;;4980781;28;20027;-78
2023/10/10 06:07:59;;;;;;;20.75;4.45;;;9.90;99.90;;;;;;4997908;28;20153;-78
2023/10/10 06:10:28;;;;;;;8.63;2.22;;;10.10;99.90;;;;;;4998126;28;20023;-77
2023/10/10 06:12:55;;;;;;;;;;;10.10;99.90;;;;;;4999231;28;20101;-78
2023/10/10 06:15:21;;;;;;;7.68;2.05;;;10.30;99.90;;;;;;4998570;28;19929;-78
2023/10/10 06:18:08;;;;;;;5.75;2.08;;;10.40;99.90;;;;;;4999305;28;20018;-77
2023/10/10 06:20:40;;;;;;;4.80;1.77;;;10.40;99.90;;;;;;4999071;28;20475;-78
2023/10/10 06:23:11;;;;;;;4.60;2.25;;;10.40;99.90;;;;;;4981700;28;20026;-78
2023/10/10 06:25:37;;;;;;;10.40;2.05;;;10.50;99.90;;;;;;4981024;28;20030;-78
2023/10/10 06:28:05;;;;;;;7.53;1.50;;;10.60;99.90;;;;;;4981620;28;20089;-77
2023/10/10 06:30:37;;;;;;;6.65;2.63;;;10.60;99.90;;;;;;4999165;28;20033;-77
2023/10/10 06:33:11;;;;;;;5.18;2.38;;;10.70;99.90;;;;;;4995319;28;20054;-78
2023/10/10 06:35:37;;;;;;;5.97;2.60;;;10.70;99.90;;;;;;4981178;28;20053;-77
2023/10/10 06:38:10;;;;;;;3.15;2.33;;;10.80;99.90;;;;;;4981355;28;20050;-77
2023/10/10 06:40:42;;;;;;;6.25;2.63;;;10.90;99.90;;;;;;4981310;28;20077;-78
2023/10/10 06:43:08;;;;;;;8.20;2.58;;;11.00;99.90;;;;;;4978965;28;20022;-78
2023/10/10 06:45:39;;;;;;;2.58;2.38;;;11.10;99.90;;;;;;4978919;28;20098;-78
2023/10/10 06:48:05;;;;;;;2.08;1.60;;;11.20;99.90;;;;;;4978997;28;20037;-78
2023/10/10 06:50:32;;;;;;;4.65;2.40;;;11.40;99.90;;;;;;4996280;28;20030;-79
2023/10/10 06:53:00;;;;;;;13.23;3.45;;;11.50;99.90;;;;;;4996477;28;20018;-78
2023/10/10 06:55:36;;;;;;;9.95;2.85;;;11.60;99.90;;;;;;4996572;28;20060;-78
2023/10/10 06:58:02;;;;;;;3.10;2.22;;;11.80;99.90;;;;;;4978761;28;20026;-78
2023/10/10 07:00:53;;;;;;;4.40;2.00;;;12.00;99.90;;;;;;4978411;28;20394;-79
2023/10/10 07:03:30;;;;;;;2.70;2.20;;;12.10;99.90;;;;;;4995571;28;20018;-77
2023/10/10 07:05:57;;;;;;;5.88;2.70;;;12.30;99.90;;;;;;4995729;28;20034;-78
2023/10/10 07:08:25;;;;;;;5.85;3.28;;;12.40;99.90;;;;;;4995559;28;20033;-78
2023/10/10 07:10:54;;;;;;;2.80;2.05;;;12.40;99.90;;;;;;4978146;28;20033;-78
2023/10/10 07:13:29;;;;;;;5.27;2.83;;;12.50;99.90;;;;;;4996042;28;20028;-78
2023/10/10 07:15:55;;;;;;;2.78;2.08;;;12.70;99.90;;;;;;4995764;28;20028;-78
2023/10/10 07:18:24;;;;;;;5.80;2.22;;;13.00;99.90;;;;;;4995736;28;20029;-77
2023/10/10 07:21:04;;;;;;;12.77;2.77;;;13.20;99.90;;;;;;4978286;28;20130;-77
2023/10/10 07:23:37;;;;;;;3.05;1.85;;;13.30;99.90;;;;;;4995487;28;20026;-78
2023/10/10 07:26:21;;;;;;;2.10;1.60;;;13.50;99.90;;;;;;4995426;28;20030;-78
2023/10/10 07:28:52;;;;;;;2.30;2.10;;;13.70;99.90;;;;;;4978075;28;20084;-77
2023/10/10 07:31:23;;;;;;;9.85;1.83;;;13.80;99.90;;;;;;4978288;28;20026;-78
2023/10/10 07:33:55;;;;;;;3.45;1.70;;;14.00;99.90;;;;;;4977332;28;20057;-77
2023/10/10 07:36:26;;;;;;;2.88;2.60;;;14.20;99.90;;;;;;4994871;28;20018;-77
2023/10/10 07:39:27;;;;;;;7.78;2.13;;;14.50;99.90;;;;;;4977254;28;20077;-77
2023/10/10 07:41:45;;;;;;;8.00;2.17;;;14.70;99.90;;;;;;4994443;28;20387;-77
2023/10/10 07:44:17;;;;;;;12.15;2.70;;;14.90;99.90;;;;;;4994441;28;20030;-77
2023/10/10 07:49:27;;;;;;;10.80;3.78;;;15.50;99.90;;;;;;4994718;28;20033;-78
2023/10/10 07:51:52;;;;;;;9.82;3.38;;;15.70;99.90;;;;;;4994781;28;20109;-77
2023/10/10 07:54:29;;;;;;;10.45;3.20;;;15.80;99.90;;;;;;4994478;28;20027;-77
2023/10/10 07:57:03;;;;;;;9.55;3.17;;;16.00;99.90;;;;;;4994296;28;20022;-78
2023/10/10 07:59:29;;;;;;;8.40;3.33;;;16.10;99.90;;;;;;4994218;28;20029;-78
2023/10/10 08:01:56;;;;;;;19.20;4.20;;;16.30;99.90;;;;;;4976904;28;20031;-78
2023/10/10 08:04:22;;;;;;;7.20;2.92;;;16.40;99.90;;;;;;4994333;28;20057;-78
2023/10/10 08:06:48;;;;;;;3.92;1.98;;;16.50;99.90;;;;;;4994378;28;20463;-78
2023/10/10 08:11:44;;;;;;;;;;;16.80;99.90;;;;;;4994754;28;20033;-78
2023/10/10 08:14:10;;;;;;;11.57;3.20;;;16.90;99.90;;;;;;4994257;28;20354;-79
2023/10/10 08:16:40;;;;;;;10.38;2.97;;;17.20;99.90;;;;;;4993995;28;20030;-78
2023/10/10 08:19:10;;;;;;;10.23;2.30;;;17.40;99.90;;;;;;4994281;28;20089;-78
2023/10/10 08:21:38;;;;;;;5.15;2.85;;;17.60;99.90;;;;;;4976708;28;20030;-78
2023/10/10 08:24:08;;;;;;;6.50;1.70;;;17.80;99.90;;;;;;4976725;28;20402;-76
2023/10/10 08:26:41;;;;;;;8.65;3.47;;;17.80;99.90;;;;;;4994142;28;20030;-78
2023/10/10 08:29:11;;;;;;;8.30;3.70;;;17.70;99.90;;;;;;4994108;28;20034;-78
2023/10/10 08:31:38;;;;;;;5.15;2.63;;;17.60;99.90;;;;;;4994215;28;20434;-80
2023/10/10 08:34:05;;;;;;;5.47;1.85;;;17.70;99.90;;;;;;4993556;28;20122;-80
2023/10/10 08:36:33;;;;;;;3.75;1.83;;;17.80;99.90;;;;;;4976732;28;20029;-81
2023/10/10 08:39:49;;;;;;;6.90;2.38;;;17.90;99.90;;;;;;4979342;28;20042;-80
2023/10/10 08:41:46;;;;;;;7.20;2.92;;;17.90;99.90;;;;;;4984285;28;20490;-77
2023/10/10 08:44:19;;;;;;;16.75;3.17;;;18.00;99.90;;;;;;4998034;28;20034;-81
2023/10/10 08:46:46;;;;;;;4.35;2.20;;;18.00;99.90;;;;;;4980507;28;20029;-80
2023/10/10 08:49:13;;;;;;;7.25;2.05;;;18.00;99.90;;;;;;4980636;28;20026;-79
2023/10/10 08:51:41;;;;;;;6.70;3.10;;;18.10;99.90;;;;;;4980465;28;20027;-81
2023/10/10 08:54:12;;;;;;;5.35;2.38;;;18.10;99.90;;;;;;4980423;28;20037;-81
2023/10/10 08:56:59;;;;;;;4.53;3.03;;;18.10;99.90;;;;;;4997766;28;20026;-80
2023/10/10 08:59:28;;;;;;;3.22;2.53;;;18.30;99.90;;;;;;4980391;28;20045;-81
2023/10/10 09:02:17;;;;;;;8.05;2.50;;;18.30;99.90;;;;;;4980411;28;20110;-81
2023/10/10 09:04:43;;;;;;;15.43;2.92;;;18.30;99.90;;;;;;4980282;28;20038;-81
2023/10/10 09:07:19;;;;;;;5.53;2.33;;;18.50;99.90;;;;;;4998093;28;20015;-81
2023/10/10 09:09:54;;;;;;;4.82;2.05;;;18.70;99.90;;;;;;4980351;28;20030;-81
2023/10/10 09:12:20;;;;;;;7.53;2.08;;;18.90;99.90;;;;;;4994945;28;20106;-80
2023/10/10 09:14:50;;;;;;;4.10;1.85;;;19.20;99.90;;;;;;4979997;28;20041;-79
2023/10/10 09:17:34;;;;;;;13.10;3.42;;;19.50;99.90;;;;;;4997523;28;20029;-79
2023/10/10 09:20:22;;;;;;;10.10;2.47;;;19.70;99.90;;;;;;4980445;28;20027;-80
2023/10/10 09:22:51;;;;;;;9.55;2.00;;;19.80;99.90;;;;;;4998282;28;20537;-79
2023/10/10 09:25:25;;;;;;;6.32;2.13;;;20.10;99.90;;;;;;4981269;28;20042;-78
2023/10/10 09:28:04;;;;;;;5.85;3.17;;;20.30;99.90;;;;;;5004305;28;20110;-80
2023/10/10 09:30:45;;;;;;;8.98;2.38;;;20.50;99.90;;;;;;4991897;28;20018;-79
2023/10/10 09:33:27;;;;;;;4.13;2.10;;;20.50;99.90;;;;;;5007268;28;20047;-81
2023/10/10 09:36:08;;;;;;;7.10;2.65;;;20.70;99.90;;;;;;4990164;28;20045;-78
2023/10/10 09:38:45;;;;;;;7.03;3.10;;;20.70;99.90;;;;;;4990116;28;20046;-82
2023/10/10 09:41:15;;;;;;;14.98;3.60;;;20.60;99.90;;;;;;4984388;28;20022;-80
2023/10/10 09:44:25;;;;;;;10.77;3.05;;;20.70;99.90;;;;;;4987733;28;20077;-79
2023/10/10 09:57:42;;;;;;;5.47;2.10;;;20.70;99.90;;;;;;5007350;28;20022;-78
2023/10/10 10:00:22;;;;;;;6.88;2.78;;;20.80;99.90;;;;;;4989140;28;20030;-79
2023/10/10 10:02:59;;;;;;;11.48;2.63;;;20.80;99.90;;;;;;5004453;28;20018;-79
2023/10/10 10:05:31;;;;;;;10.82;3.92;;;21.00;99.90;;;;;;5006944;28;20346;-78
2023/10/10 10:08:21;;;;;;;9.68;2.83;;;21.00;99.90;;;;;;4989360;28;20020;-80
2023/10/10 10:10:56;;;;;;;4.00;2.58;;;21.30;99.90;;;;;;5006839;28;20018;-80
2023/10/10 10:13:37;;;;;;;6.97;2.83;;;21.40;99.90;;;;;;5006902;28;20023;-80
2023/10/10 10:16:19;;;;;;;9.90;2.35;;;21.50;99.90;;;;;;5006731;28;20022;-79
2023/10/10 10:18:47;;;;;;;2.47;2.28;;;21.60;99.90;;;;;;4989409;28;20085;-82
2023/10/10 10:22:06;;;;;;;5.78;2.08;;;21.70;99.90;;;;;;4997292;28;20018;-79
2023/10/10 10:24:33;;;;;;;8.15;2.45;;;21.90;99.90;;;;;;5002014;28;20038;-81
2023/10/10 10:27:42;;;;;;;8.38;2.75;;;22.10;99.90;;;;;;5005936;28;20046;-80
2023/10/10 10:32:47;;;;;;;9.43;2.28;;;22.40;99.90;;;;;;5002050;28;20034;-76
2023/10/10 10:35:24;;;;;;;8.80;2.65;;;22.50;99.20;;;;;;4982708;28;20058;-78
2023/10/10 10:37:59;;;;;;;6.60;2.78;;;22.70;98.40;;;;;;4984816;28;20022;-79
2023/10/10 10:40:43;;;;;;;10.40;2.55;;;22.90;97.80;;;;;;4987989;28;20041;-79
2023/10/10 10:43:16;;;;;;;7.05;2.78;;;23.00;97.20;;;;;;4982042;28;20037;-78
2023/10/10 10:46:11;;;;;;;8.02;2.40;;;23.30;96.80;;;;;;4978210;28;20038;-78
2023/10/10 10:48:35;;;;;;;9.30;2.33;;;23.50;95.80;;;;;;4996192;28;20472;-79
2023/10/10 10:51:26;;;;;;;6.38;2.50;;;23.70;95.10;;;;;;4996066;28;20510;-78
2023/10/10 10:53:59;;;;;;;8.00;2.88;;;23.80;94.70;;;;;;4995678;28;20030;-78
2023/10/10 10:59:12;;;;;;;12.60;2.50;;;24.10;92.60;;;;;;4995705;28;20037;-79
2023/10/10 11:01:51;;;;;;;5.47;2.47;;;24.20;92.60;;;;;;4994356;28;20033;-78
2023/10/10 11:07:08;;;;;;;9.73;2.72;;;24.40;91.70;;;;;;4995591;28;20018;-78
2023/10/10 11:09:37;;;;;;;7.60;2.35;;;24.50;91.70;;;;;;4978001;28;20034;-80
2023/10/10 11:12:07;;;;;;;;;;;24.60;91.40;;;;;;4995755;28;20038;-79
2023/10/10 11:14:35;;;;;;;10.10;1.85;;;24.70;90.70;;;;;;4973838;28;19929;-80
2023/10/10 11:17:01;;;;;;;4.57;2.53;;;24.90;90.90;;;;;;4995141;28;20383;-79
2023/10/10 11:22:05;;;;;;;10.73;3.38;;;25.50;90.10;;;;;;4994927;28;20026;-79
2023/10/10 11:24:47;;;;;;;9.52;2.47;;;25.60;86.90;;;;;;5131854;27;20885;-80
2023/10/10 11:30:00;;;;;;;8.63;2.55;;;25.70;87.30;;;;;;5111788;28;20035;-80
2023/10/10 11:32:36;;;;;;;9.73;2.92;;;25.50;85.20;;;;;;5093581;28;20046;-79
2023/10/10 11:35:17;;;;;;;4.72;2.35;;;25.30;83.90;;;;;;5093166;28;20028;-79
2023/10/10 11:37:47;;;;;;;7.97;2.58;;;25.40;85.60;;;;;;5092976;28;20115;-80
2023/10/10 11:40:19;;;;;;;10.45;3.92;;;25.70;83.90;;;;;;5093042;28;20028;-80
2023/10/10 11:42:47;;;;;;;8.88;2.13;;;25.60;81.20;;;;;;5092959;28;20103;-79
2023/10/10 11:45:26;;;;;;;7.03;2.08;;;25.60;82.00;;;;;;5092970;28;20084;-79
2023/10/10 11:48:00;;;;;;;13.48;3.50;;;25.70;82.30;;;;;;5093054;28;20472;-80
2023/10/10 11:50:56;;;;;;;10.02;2.90;;;25.80;80.30;;;;;;5092626;28;20030;-79
2023/10/10 11:53:28;;;;;;;10.57;3.10;;;25.90;81.30;;;;;;5090726;28;20105;-80
2023/10/10 11:55:55;;;;;;;11.13;2.58;;;25.90;78.40;;;;;;5110774;28;20020;-79
2023/10/10 11:58:23;;;;;;;6.15;3.03;;;25.90;77.20;;;;;;5092937;28;20026;-79
2023/10/10 12:01:05;;;;;;;7.60;2.53;;;25.80;76.40;;;;;;5111086;28;20053;-79
2023/10/10 12:06:26;;;;;;;5.55;2.25;;;25.90;74.10;;;;;;5111143;28;20377;-78
2023/10/10 12:08:53;;;;;;;14.60;2.67;;;26.00;74.00;;;;;;5092750;28;20563;-80
2023/10/10 12:11:22;;;;;;;10.93;3.05;;;26.10;72.80;;;;;;5092581;28;20032;-79
2023/10/10 12:13:51;;;;;;;13.00;3.00;;;26.20;72.60;;;;;;5092221;28;20472;-79
2023/10/10 12:16:18;;;;;;;4.28;2.47;;;26.50;73.30;;;;;;5092653;28;20062;-79
2023/10/10 12:18:49;;;;;;;11.70;2.67;;;26.70;72.30;;;;;;5100612;28;20053;-79
2023/10/10 12:21:19;;;;;;;10.10;2.78;;;27.30;71.70;;;;;;5109638;28;20024;-80
2023/10/10 12:23:48;;;;;;;6.50;2.75;;;28.10;70.90;;;;;;5103003;28;20048;-79
2023/10/10 12:26:14;;;;;;;9.38;2.85;;;28.60;68.70;;;;;;5109935;28;20027;-80
2023/10/10 12:28:40;;;;;;;13.30;2.50;;;28.60;67.10;;;;;;5109244;28;20032;-80
2023/10/10 12:31:08;;;;;;;9.38;2.72;;;29.20;65.30;;;;;;5109271;28;20072;-80
2023/10/10 12:33:38;;;;;;;4.13;1.88;;;29.10;63.00;;;;;;5109338;28;20082;-80
2023/10/10 12:36:09;;;;;;;9.20;2.75;;;29.60;63.50;;;;;;5096777;28;20434;-80
2023/10/10 12:38:35;;;;;;;4.60;2.70;;;30.60;63.30;;;;;;5096777;28;20020;-80
2023/10/10 12:41:00;;;;;;;9.30;2.55;;;30.60;59.70;;;;;;5095369;28;20749;-80
2023/10/10 12:43:26;;;;;;;17.38;3.10;;;30.20;58.20;;;;;;5096849;28;20392;-80
2023/10/10 12:45:54;;;;;;;10.48;2.58;;;29.40;56.30;;;;;;5096404;28;20020;-79
2023/10/10 12:48:20;;;;;;;6.78;2.05;;;28.60;57.20;;;;;;5096712;28;20104;-79
2023/10/10 12:50:50;;;;;;;3.65;2.25;;;28.50;56.90;;;;;;5095302;28;20020;-80
2023/10/10 12:53:20;;;;;;;5.45;2.35;;;28.60;54.70;;;;;;5095085;28;20508;-79
2023/10/10 12:55:52;;;;;;;4.13;2.00;;;28.70;54.90;;;;;;5094989;28;20107;-80
2023/10/10 12:58:22;;;;;;;5.78;2.38;;;29.20;52.60;;;;;;5096364;28;20061;-80
2023/10/10 13:00:52;;;;;;;7.30;2.85;;;29.20;53.10;;;;;;5096260;28;20066;-80
2023/10/10 13:03:28;;;;;;;12.90;2.65;;;29.10;52.90;;;;;;5094906;28;20480;-79
2023/10/10 13:05:58;;;;;;;8.38;2.95;;;29.30;53.60;;;;;;5094975;28;20032;-80
2023/10/10 13:08:25;;;;;;;8.10;3.28;;;29.50;52.10;;;;;;5094726;28;20027;-79
2023/10/10 13:10:55;;;;;;;2.58;2.22;;;29.90;53.00;;;;;;5095033;28;20124;-80
2023/10/10 13:13:26;;;;;;;5.05;2.38;;;29.60;49.70;;;;;;5095979;28;20020;-80
2023/10/10 13:16:22;;;;;;;4.18;1.80;;;29.20;50.70;;;;;;5094692;28;20024;-80
2023/10/10 13:18:48;;;;;;;7.22;2.42;;;29.10;51.40;;;;;;5095894;28;20023;-79
2023/10/10 13:21:14;;;;;;;7.80;2.83;;;29.20;51.00;;;;;;5094279;28;20127;-78
2023/10/10 13:23:43;;;;;;;5.03;2.60;;;29.50;50.90;;;;;;5094086;28;20082;-79
2023/10/10 13:26:10;;;;;;;6.13;1.95;;;29.90;51.20;;;;;;5095540;28;20019;-79
2023/10/10 13:28:36;;;;;;;7.90;2.65;;;29.90;50.30;;;;;;5093886;28;20437;-80
2023/10/10 13:31:02;;;;;;;3.72;1.98;;;30.30;48.60;;;;;;5095442;28;20487;-80
2023/10/10 13:33:28;;;;;;;5.38;2.03;;;30.90;50.80;;;;;;5094226;28;20028;-79
2023/10/10 13:35:53;;;;;;;5.57;2.50;;;31.00;49.40;;;;;;5095397;28;20027;-80
2023/10/10 13:38:19;;;;;;;4.68;2.03;;;31.10;48.30;;;;;;5095300;28;20452;-79
2023/10/10 13:40:46;;;;;;;5.88;2.65;;;31.40;48.50;;;;;;5095286;28;20077;-80
2023/10/10 13:43:18;;;;;;;2.10;1.60;;;31.40;48.30;;;;;;5093772;28;20036;-78
2023/10/10 13:45:45;;;;;;;7.78;2.10;;;31.00;49.40;;;;;;5094594;28;20020;-78
2023/10/10 13:48:13;;;;;;;12.40;2.22;;;31.50;49.10;;;;;;5093143;28;20032;-79
2023/10/10 13:50:45;;;;;;;5.75;2.83;;;31.40;48.60;;;;;;5093835;28;20023;-78
2023/10/10 13:53:14;;;;;;;4.38;2.47;;;31.30;49.30;;;;;;5095103;28;20128;-79
2023/10/10 13:55:42;;;;;;;10.00;2.50;;;31.40;48.90;;;;;;5094982;28;20556;-78
2023/10/10 13:58:16;;;;;;;8.18;2.15;;;31.20;49.10;;;;;;5093678;28;20024;-79
2023/10/10 14:00:52;;;;;;;3.30;2.53;;;30.80;50.20;;;;;;5094721;28;20024;-79
2023/10/10 14:03:35;;;;;;;4.75;2.85;;;31.10;50.90;;;;;;5093354;28;20032;-78
2023/10/10 14:06:03;;;;;;;9.43;2.65;;;31.60;50.50;;;;;;5094805;28;20376;-79
2023/10/10 14:08:30;;;;;;;5.65;2.00;;;31.60;49.30;;;;;;5094812;28;20456;-80
2023/10/10 14:10:59;;;;;;;4.63;2.35;;;31.90;49.00;;;;;;5094713;28;20031;-79
2023/10/10 14:13:28;;;;;;;2.95;2.08;;;31.20;48.50;;;;;;5093417;28;20032;-79
2023/10/10 14:15:55;;;;;;;5.32;1.80;;;31.30;48.00;;;;;;5093320;28;20024;-79
2023/10/10 14:18:30;;;;;;;4.10;1.95;;;30.70;47.40;;;;;;5094750;28;20020;-79
2023/10/10 14:21:00;;;;;;;6.32;2.13;;;30.80;47.50;;;;;;5094424;28;20028;-78
2023/10/10 14:23:27;;;;;;;4.30;2.00;;;30.70;47.20;;;;;;5093196;28;20070;-79
2023/10/10 14:26:14;;;;;;;5.10;2.05;;;30.50;48.30;;;;;;5093071;28;20024;-79
2023/10/10 14:28:50;;;;;;;1.83;1.30;;;30.90;48.30;;;;;;5094324;28;20488;-79
2023/10/10 14:31:24;;;;;;;5.43;2.33;;;30.30;48.60;;;;;;5093137;28;20035;-79
2023/10/10 14:33:51;;;;;;;8.13;2.72;;;29.80;49.90;;;;;;5093049;28;20055;-79
2023/10/10 14:36:17;;;;;;;5.03;2.08;;;29.80;51.30;;;;;;5092969;28;20388;-79
2023/10/10 14:38:47;;;;;;;6.05;2.83;;;30.20;51.70;;;;;;5093897;28;20530;-79
2023/10/10 14:41:16;;;;;;;3.33;2.35;;;30.50;51.50;;;;;;5094037;28;20115;-79
2023/10/10 14:43:48;;;;;;;8.98;2.25;;;30.60;50.80;;;;;;5092757;28;20028;-79
2023/10/10 14:46:40;;;;;;;4.97;2.08;;;30.50;50.70;;;;;;5092778;28;20027;-79
2023/10/10 14:49:16;;;;;;;6.60;1.80;;;30.50;51.80;;;;;;5092963;28;20503;-79
2023/10/10 14:51:48;;;;;;;5.07;1.80;;;30.60;50.60;;;;;;5092800;28;20024;-79
2023/10/10 14:54:17;;;;;;;5.20;2.47;;;30.60;50.20;;;;;;5092630;28;20059;-79
2023/10/10 14:56:47;;;;;;;8.55;2.50;;;30.20;50.30;;;;;;5093909;28;20027;-79
2023/10/10 14:59:18;;;;;;;3.53;2.35;;;29.80;51.00;;;;;;5092297;28;20448;-80
2023/10/10 15:01:50;;;;;;;6.25;2.20;;;29.40;51.30;;;;;;5092506;28;20017;-79
2023/10/10 15:04:21;;;;;;;6.72;1.95;;;29.10;51.50;;;;;;5093937;28;20063;-79
2023/10/10 15:06:48;;;;;;;4.70;1.90;;;28.60;52.60;;;;;;5092708;28;20520;-79
2023/10/10 15:09:20;;;;;;;3.28;1.90;;;28.40;55.30;;;;;;5092922;28;20028;-79
2023/10/10 15:11:47;;;;;;;3.50;2.10;;;28.60;54.40;;;;;;5094360;28;20020;-80
2023/10/10 15:14:13;;;;;;;4.32;1.83;;;29.00;54.80;;;;;;5117189;28;20047;-80
2023/10/10 15:16:40;;;;;;;3.38;1.52;;;29.40;55.20;;;;;;5107320;28;20024;-79
2023/10/10 15:19:07;;;;;;;9.48;2.42;;;29.80;54.20;;;;;;5093533;28;20065;-81
2023/10/10 15:21:34;;;;;;;3.30;2.00;;;29.80;54.70;;;;;;5092361;28;20024;-79
2023/10/10 15:24:01;;;;;;;7.35;2.90;;;29.60;57.50;;;;;;5092247;28;20052;-79
2023/10/10 15:26:27;;;;;;;12.52;2.50;;;29.20;57.90;;;;;;5092409;28;20020;-79
2023/10/10 15:28:54;;;;;;;16.33;4.18;;;28.60;58.60;;;;;;5093465;28;20030;-79
2023/10/10 15:31:30;;;;;;;56.60;6.85;;;27.80;59.30;;;;;;5093532;28;20013;-79
2023/10/10 15:34:00;;;;;;;48.45;6.00;;;26.90;62.20;;;;;;5093105;28;20028;-79
2023/10/10 15:36:30;;;;;;;26.02;4.22;;;26.30;62.50;;;;;;5093601;28;20028;-78
2023/10/10 15:39:07;;;;;;;10.93;3.17;;;26.00;64.00;;;;;;5093384;28;20161;-78
2023/10/10 15:41:37;;;;;;;9.00;2.35;;;26.10;64.70;;;;;;5093272;28;20533;-79
2023/10/10 15:44:04;;;;;;;6.10;2.22;;;26.10;64.50;;;;;;5092730;28;20055;-79
2023/10/10 15:46:31;;;;;;;9.60;2.90;;;25.90;64.20;;;;;;5093092;28;20074;-79
2023/10/10 15:48:59;;;;;;;7.80;2.42;;;25.80;66.70;;;;;;5093978;28;20024;-78
2023/10/10 15:51:25;;;;;;;6.55;2.45;;;25.60;66.20;;;;;;5096346;28;20028;-79
2023/10/10 15:53:53;;;;;;;8.25;2.20;;;25.30;66.00;;;;;;5095363;28;20024;-79